Weather at Maverick Heliport [CLOSED]

Public forecast

Using degrees Fahrenheit for public forecast. Weather courtesy of forecast.io.

Closest aviation weather report (METAR) to Maverick Heliport

Closest report is Henderson Executive Airport, 3.3 nm (6.1 km) NE. Retrieved 2021/10/19 11:56 UTC (2 hours ago):

KHND 191156Z AUTO 23009KT 10SM CLR 08/M08 A3000 RMK AO2 SLP172 T00781078 10117 20072 53007

Closest aviation forecast (TAF) to Maverick Heliport

Closest forecast is Henderson Executive Airport, 3.3 nm (6.1 km) NE. Retrieved 2021/10/19 12:22 UTC (1 hour ago):

TAF KHND 191120Z 1912/2012 19008KT P6SM SKC FM191500 VRB05KT P6SM SKC FM191900 02007KT P6SM FEW250 FM200300 20006KT P6SM SCT250